createdAt,value
2022-08-18T00:04:35.690Z,83.1
2022-08-18T00:11:44.137Z,82.8
2022-08-18T00:17:54.801Z,83.5
2022-08-18T00:24:05.480Z,86.7
2022-08-18T00:30:07.956Z,86.7
2022-08-18T00:36:18.610Z,85.6
2022-08-18T00:42:30.766Z,86.9
2022-08-18T00:48:39.940Z,86.9
2022-08-18T00:54:50.602Z,90.2
2022-08-18T01:01:01.308Z,88.4
2022-08-18T01:07:11.957Z,87.7
2022-08-18T01:13:22.622Z,91.7
2022-08-18T01:19:33.314Z,90.1
2022-08-18T01:26:49.867Z,90.1
2022-08-18T01:33:00.556Z,87.3
2022-08-18T01:39:11.198Z,87.3
2022-08-18T01:45:21.872Z,87.7
2022-08-18T01:51:40.160Z,89.2
2022-08-18T01:57:43.243Z,91.1
2022-08-18T02:04:02.562Z,92.5
2022-08-18T02:10:04.531Z,93.3
2022-08-18T02:15:17.483Z,95.7
2022-08-18T02:21:28.127Z,96.9
2022-08-18T02:27:30.643Z,96.9
2022-08-18T02:33:41.280Z,92.7
2022-08-18T02:39:52.016Z,92.9
2022-08-18T02:46:02.646Z,90.9
2022-08-18T02:52:13.382Z,89.1
2022-08-18T02:57:18.031Z,93
2022-08-18T03:03:28.747Z,93.4
2022-08-18T03:09:39.346Z,93.1
2022-08-18T03:15:54.678Z,92.4
2022-08-18T03:22:03.360Z,92.6
2022-08-18T03:28:11.346Z,93
2022-08-18T03:34:13.832Z,93
2022-08-18T03:40:24.481Z,93.7
2022-08-18T03:46:35.144Z,95.6
2022-08-18T03:52:45.815Z,94.6
2022-08-18T03:58:56.500Z,98.5
2022-08-18T04:05:07.175Z,96.2
2022-08-18T04:11:17.853Z,96
2022-08-18T04:17:28.509Z,95.7
2022-08-18T04:23:39.404Z,99.1
2022-08-18T04:29:41.646Z,99.1
2022-08-18T04:35:52.302Z,100
2022-08-18T04:42:03.111Z,100
2022-08-18T04:47:15.870Z,99.5
2022-08-18T04:53:26.564Z,97.4
2022-08-18T04:59:37.205Z,96.9
2022-08-18T05:05:47.904Z,97.3
2022-08-18T05:11:58.557Z,95.1
2022-08-18T05:18:09.220Z,96.2
2022-08-18T05:24:19.871Z,95.8
2022-08-18T05:31:36.511Z,95.7
2022-08-18T05:37:47.347Z,94.9
2022-08-18T05:43:57.851Z,94.2
2022-08-18T05:50:08.497Z,95
2022-08-18T05:56:19.172Z,94.2
2022-08-18T06:02:29.896Z,93.4
2022-08-18T06:08:40.494Z,94.4
2022-08-18T06:14:51.156Z,92.6
2022-08-18T06:21:01.837Z,92.4
2022-08-18T06:27:12.513Z,92.2
2022-08-18T06:33:14.981Z,92
2022-08-18T06:39:25.654Z,93
2022-08-18T06:45:39.692Z,92.8
2022-08-18T06:51:46.983Z,91.9
2022-08-18T06:57:57.664Z,92.3
2022-08-18T07:03:02.375Z,94.7
2022-08-18T07:09:13.038Z,93.7
2022-08-18T07:14:26.038Z,91.2
2022-08-18T07:20:36.630Z,91.4
2022-08-18T07:26:47.291Z,97.3
2022-08-18T07:32:49.755Z,97.3
2022-08-18T07:39:00.430Z,98.8
2022-08-18T07:45:11.089Z,99.8
2022-08-18T07:51:21.766Z,97
2022-08-18T07:57:32.439Z,99.7
2022-08-18T08:03:43.119Z,99.7
2022-08-18T08:09:53.807Z,95.4
2022-08-18T08:16:04.441Z,93
2022-08-18T08:22:15.121Z,88.1
2022-08-18T08:28:25.808Z,90.2
2022-08-18T08:34:28.260Z,89.1
2022-08-18T08:40:38.918Z,88.2
2022-08-18T08:46:49.565Z,87
2022-08-18T08:53:00.233Z,85.6
2022-08-18T08:59:10.889Z,81.7
2022-08-18T09:05:21.573Z,80.5
2022-08-18T09:11:32.236Z,81.4
2022-08-18T09:17:42.894Z,82.5
2022-08-18T09:23:53.574Z,81.3
2022-08-18T09:30:04.269Z,80.8
2022-08-18T09:36:08.942Z,81.9
2022-08-18T09:42:17.535Z,83.4
2022-08-18T09:47:30.556Z,83.4
2022-08-18T09:53:40.970Z,82.5
2022-08-18T09:59:51.633Z,82.2
2022-08-18T10:06:02.318Z,82.7
2022-08-18T10:12:15.670Z,81.9
2022-08-18T10:18:23.644Z,78.7
2022-08-18T10:24:36.237Z,76.2
2022-08-18T10:30:56.447Z,75.6
2022-08-18T10:36:47.467Z,73.5
2022-08-18T10:42:58.112Z,73.2
2022-08-18T10:49:08.918Z,71.4
2022-08-18T10:55:19.455Z,68.3
2022-08-18T11:01:30.909Z,66.9
2022-08-18T11:07:40.772Z,64.8
2022-08-18T11:12:45.515Z,66
2022-08-18T11:18:56.195Z,66.1
2022-08-18T11:25:06.856Z,64.4
2022-08-18T11:32:23.475Z,65.4
2022-08-18T11:38:34.139Z,66.1
2022-08-18T11:44:44.808Z,65.5
2022-08-18T11:50:55.496Z,65.4
2022-08-18T11:57:10.239Z,61.7
2022-08-18T12:03:16.805Z,60.9
2022-08-18T12:10:07.711Z,55
2022-08-18T12:14:40.399Z,56.7
2022-08-18T12:20:51.285Z,54.9
2022-08-18T12:28:15.866Z,53.9
2022-08-18T12:34:25.087Z,54.8
2022-08-18T12:40:29.019Z,54.8
2022-08-18T12:46:39.688Z,55.7
2022-08-18T12:52:50.359Z,54.6
2022-08-18T12:59:01.007Z,53.8
2022-08-18T13:05:11.652Z,52.1
2022-08-18T13:11:24.928Z,51.3
2022-08-18T13:17:34.348Z,49.7
2022-08-18T13:23:43.683Z,50.8
2022-08-18T13:29:54.395Z,51.8
2022-08-18T13:35:56.807Z,51.8
2022-08-18T13:42:28.407Z,49.9
2022-08-18T13:48:18.174Z,51.6
2022-08-18T13:54:31.465Z,51.6
2022-08-18T14:00:39.521Z,49.5
2022-08-18T14:06:57.519Z,48.5
2022-08-18T14:13:00.824Z,51.5
2022-08-18T14:19:11.513Z,52.1
2022-08-18T14:25:22.895Z,50.4
2022-08-18T14:31:34.067Z,49.6
2022-08-18T14:37:35.308Z,48.8
2022-08-18T14:44:13.534Z,49
2022-08-18T14:50:13.017Z,50.5
2022-08-18T14:56:24.398Z,50
2022-08-18T15:02:34.330Z,49.2
2022-08-18T15:08:47.111Z,49.1
2022-08-18T15:14:55.833Z,49.4
2022-08-18T15:20:01.314Z,49.5
2022-08-18T15:26:11.057Z,49.4
2022-08-18T15:32:21.732Z,48.8
2022-08-18T15:38:24.222Z,49.2
2022-08-18T15:44:34.894Z,49.6
2022-08-18T15:50:45.545Z,49.7
2022-08-18T15:56:58.298Z,50.5
2022-08-18T16:03:08.889Z,52.4
2022-08-18T16:09:17.554Z,50.9
2022-08-18T16:15:28.248Z,50.8
2022-08-18T16:21:38.885Z,51.3
2022-08-18T16:27:49.590Z,51.3
2022-08-18T16:34:00.218Z,51.8
2022-08-18T16:40:02.820Z,51.7
2022-08-18T16:46:13.362Z,52.6
2022-08-18T16:52:24.054Z,52.6
2022-08-18T16:58:34.722Z,53.2
2022-08-18T17:04:45.395Z,53
2022-08-18T17:10:56.065Z,52.6
2022-08-18T17:16:08.954Z,52.8
2022-08-18T17:22:19.639Z,53.6
2022-08-18T17:28:30.301Z,52.8
2022-08-18T17:34:40.963Z,51.8
2022-08-18T17:40:43.463Z,52.3
2022-08-18T17:46:54.135Z,51
2022-08-18T17:53:04.809Z,51.7
2022-08-18T17:59:46.344Z,52.1
2022-08-18T18:05:26.136Z,53
2022-08-18T18:11:36.803Z,53.6
2022-08-18T18:17:47.455Z,53.8
2022-08-18T18:25:12.245Z,54.5
2022-08-18T18:31:22.925Z,55.7
2022-08-18T18:38:39.563Z,56.2
2022-08-18T18:44:50.207Z,56.4
2022-08-18T18:51:10.541Z,56.6
2022-08-18T18:57:12.767Z,56.6
2022-08-18T19:03:22.222Z,58.8
2022-08-18T19:09:32.864Z,59.3
2022-08-18T19:15:43.535Z,59.9
2022-08-18T19:22:05.743Z,60.5
2022-08-18T19:26:58.965Z,61.1
2022-08-18T19:33:09.621Z,61.8
2022-08-18T19:39:12.108Z,62.5
2022-08-18T19:44:25.021Z,64.1
2022-08-18T19:50:35.689Z,64.1
2022-08-18T19:56:46.352Z,65.3
2022-08-18T20:02:57.035Z,65.1
2022-08-18T20:09:07.677Z,65.8
2022-08-18T20:15:18.322Z,67
2022-08-18T20:21:29.009Z,67.2
2022-08-18T20:27:39.732Z,67.7
2022-08-18T20:33:50.321Z,68
2022-08-18T20:39:52.874Z,68
2022-08-18T20:46:03.467Z,69.4
2022-08-18T20:52:14.163Z,70.3
2022-08-18T20:58:24.804Z,70.2
2022-08-18T21:04:36.210Z,71.6
2022-08-18T21:10:46.153Z,73.2
2022-08-18T21:16:56.835Z,72.8
2022-08-18T21:23:07.497Z,72.7
2022-08-18T21:29:18.130Z,72.8
2022-08-18T21:35:28.812Z,72.8
2022-08-18T21:41:31.287Z,73.2
2022-08-18T21:47:41.951Z,73.7
2022-08-18T21:53:52.654Z,74.2
2022-08-18T22:00:03.332Z,74.6
2022-08-18T22:06:13.998Z,74.9
2022-08-18T22:12:24.775Z,75.1
2022-08-18T22:17:37.543Z,75.9
2022-08-18T22:23:48.235Z,76.6
2022-08-18T22:29:58.895Z,76.8
2022-08-18T22:36:09.556Z,77.8
2022-08-18T22:42:12.049Z,77.8
2022-08-18T22:48:22.694Z,77.2
2022-08-18T22:54:33.347Z,76.7
2022-08-18T23:00:44.027Z,76.8
2022-08-18T23:06:54.688Z,77.3
2022-08-18T23:13:05.385Z,76.9
2022-08-18T23:19:16.045Z,79.2
2022-08-18T23:25:26.678Z,80.8
2022-08-18T23:31:37.380Z,82.5
2022-08-18T23:36:45.552Z,83.5
2022-08-18T23:42:44.566Z,84.3
2022-08-18T23:48:55.226Z,84.8
2022-08-18T23:55:05.887Z,84.6
